createdAt,value
2023-04-17T00:00:33.159Z,20.40
2023-04-17T00:03:02.040Z,19.63
2023-04-17T00:05:29.048Z,20.23
2023-04-17T00:07:57.133Z,20.20
2023-04-17T00:10:23.857Z,20.27
2023-04-17T00:12:50.892Z,20.40
2023-04-17T00:15:17.367Z,19.98
2023-04-17T00:17:43.911Z,19.20
2023-04-17T00:20:10.925Z,20.20
2023-04-17T00:22:37.701Z,19.45
2023-04-17T00:25:04.376Z,20.42
2023-04-17T00:27:31.558Z,18.98
2023-04-17T00:29:58.538Z,18.65
2023-04-17T00:32:24.968Z,19.27
2023-04-17T00:34:55.712Z,17.55
2023-04-17T00:37:22.740Z,16.80
2023-04-17T00:39:49.673Z,17.13
2023-04-17T00:42:16.302Z,17.13
2023-04-17T00:44:42.742Z,17.13
2023-04-17T00:47:09.358Z,15.88
2023-04-17T00:49:36.257Z,16.02
2023-04-17T00:52:04.010Z,15.95
2023-04-17T00:54:31.690Z,14.80
2023-04-17T00:56:59.061Z,15.55
2023-04-17T00:59:27.117Z,15.00
2023-04-17T01:01:53.719Z,14.00
2023-04-17T01:04:20.991Z,14.60
2023-04-17T01:06:47.560Z,14.00
2023-04-17T01:09:15.077Z,14.13
2023-04-17T01:11:41.765Z,12.75
2023-04-17T01:14:08.429Z,12.00
2023-04-17T01:16:35.546Z,12.25
2023-04-17T01:19:02.241Z,11.80
2023-04-17T01:21:28.740Z,11.80
2023-04-17T01:23:55.921Z,11.88
2023-04-17T01:26:29.251Z,11.73
2023-04-17T01:28:57.583Z,11.20
2023-04-17T01:31:24.906Z,11.40
2023-04-17T01:33:54.322Z,12.15
2023-04-17T01:36:21.517Z,11.25
2023-04-17T01:38:48.234Z,11.98
2023-04-17T01:41:14.975Z,12.13
2023-04-17T01:43:45.952Z,13.25
2023-04-17T01:46:12.699Z,11.95
2023-04-17T01:48:39.537Z,11.23
2023-04-17T01:51:06.329Z,11.98
2023-04-17T01:53:33.323Z,11.70
2023-04-17T01:56:02.571Z,11.98
2023-04-17T01:58:32.625Z,11.20
2023-04-17T02:01:00.478Z,9.98
2023-04-17T02:03:27.843Z,11.07
2023-04-17T02:05:54.636Z,10.98
2023-04-17T02:08:21.444Z,10.90
2023-04-17T02:10:47.955Z,10.23
2023-04-17T02:13:14.470Z,10.02
2023-04-17T02:15:41.347Z,9.75
2023-04-17T02:18:11.185Z,9.55
2023-04-17T02:20:38.381Z,10.05
2023-04-17T02:23:06.008Z,8.30
2023-04-17T02:25:32.649Z,8.48
2023-04-17T02:27:59.231Z,8.65
2023-04-17T02:30:27.353Z,8.75
2023-04-17T02:32:56.152Z,8.55
2023-04-17T02:35:23.981Z,8.00
2023-04-17T02:37:53.243Z,7.82
2023-04-17T02:40:23.204Z,8.05
2023-04-17T02:42:54.353Z,7.32
2023-04-17T02:45:21.229Z,6.68
2023-04-17T02:47:48.108Z,7.13
2023-04-17T02:50:14.716Z,7.30
2023-04-17T02:53:09.501Z,7.38
2023-04-17T02:55:36.209Z,7.25
2023-04-17T02:58:03.340Z,7.53
2023-04-17T03:00:29.827Z,7.13
2023-04-17T03:02:56.607Z,7.32
2023-04-17T03:05:24.260Z,7.47
2023-04-17T03:07:52.803Z,6.80
2023-04-17T03:10:20.652Z,6.90
2023-04-17T03:12:47.261Z,7.25
2023-04-17T03:15:14.253Z,6.95
2023-04-17T03:17:41.025Z,7.50
2023-04-17T03:20:08.866Z,6.97
2023-04-17T03:22:36.599Z,6.63
2023-04-17T03:25:04.751Z,7.30
2023-04-17T03:27:39.326Z,7.50
2023-04-17T03:30:06.652Z,7.75
2023-04-17T03:32:33.937Z,7.80
2023-04-17T03:35:01.510Z,7.55
2023-04-17T03:37:28.124Z,8.38
2023-04-17T03:39:55.678Z,8.45
2023-04-17T03:42:24.929Z,8.55
2023-04-17T03:44:52.078Z,9.25
2023-04-17T03:47:18.988Z,9.20
2023-04-17T03:49:45.782Z,9.52
2023-04-17T03:52:12.881Z,10.20
2023-04-17T03:54:39.704Z,9.35
2023-04-17T03:57:07.460Z,9.23
2023-04-17T03:59:34.160Z,9.23
2023-04-17T04:02:01.424Z,8.63
2023-04-17T04:04:30.639Z,7.40
2023-04-17T04:07:05.681Z,7.10
2023-04-17T04:09:33.128Z,7.68
2023-04-17T04:12:00.122Z,8.25
2023-04-17T04:14:27.673Z,8.43
2023-04-17T04:16:54.198Z,7.78
2023-04-17T04:19:20.717Z,8.25
2023-04-17T04:21:47.809Z,7.75
2023-04-17T04:24:14.699Z,7.15
2023-04-17T04:26:42.569Z,7.35
2023-04-17T04:29:11.611Z,6.80
2023-04-17T04:31:53.460Z,6.97
2023-04-17T04:34:25.788Z,7.20
2023-04-17T04:36:52.325Z,6.40
2023-04-17T04:39:37.992Z,6.53
2023-04-17T04:42:09.818Z,6.38
2023-04-17T04:44:54.346Z,6.50
2023-04-17T04:47:23.086Z,6.90
2023-04-17T04:49:51.075Z,6.97
2023-04-17T04:52:20.340Z,6.75
2023-04-17T04:54:48.732Z,5.72
2023-04-17T04:57:15.387Z,5.22
2023-04-17T04:59:46.143Z,5.78
2023-04-17T05:02:28.132Z,5.78
2023-04-17T05:04:55.816Z,5.35
2023-04-17T05:07:22.702Z,4.70
2023-04-17T05:09:50.115Z,4.32
2023-04-17T05:12:17.129Z,4.45
2023-04-17T05:14:44.553Z,4.72
2023-04-17T05:17:11.057Z,5.50
2023-04-17T05:19:38.518Z,4.72
2023-04-17T05:22:08.454Z,3.92
2023-04-17T05:24:44.456Z,4.07
2023-04-17T05:27:11.002Z,4.20
2023-04-17T05:29:37.732Z,3.55
2023-04-17T05:32:04.524Z,4.00
2023-04-17T05:34:51.318Z,4.03
2023-04-17T05:37:21.973Z,4.60
2023-04-17T05:39:48.614Z,4.63
2023-04-17T05:42:15.098Z,4.22
2023-04-17T05:44:41.790Z,3.95
2023-04-17T05:47:08.274Z,2.90
2023-04-17T05:49:36.700Z,3.45
2023-04-17T05:52:03.446Z,3.78
2023-04-17T05:54:30.373Z,3.50
2023-04-17T05:56:57.890Z,4.28
2023-04-17T05:59:25.350Z,4.47
2023-04-17T06:01:52.520Z,3.58
2023-04-17T06:04:21.930Z,3.92
2023-04-17T06:06:50.126Z,4.18
2023-04-17T06:09:16.929Z,3.72
2023-04-17T06:11:44.360Z,3.50
2023-04-17T06:14:12.120Z,3.97
2023-04-17T06:16:38.652Z,4.00
2023-04-17T06:19:05.332Z,4.30
2023-04-17T06:21:32.529Z,4.20
2023-04-17T06:24:00.475Z,4.85
2023-04-17T06:26:27.007Z,4.95
2023-04-17T06:28:54.759Z,4.72
2023-04-17T06:31:23.082Z,4.72
2023-04-17T06:33:50.933Z,4.50
2023-04-17T06:36:20.709Z,5.05
2023-04-17T06:38:49.366Z,4.80
2023-04-17T06:41:18.138Z,5.40
2023-04-17T06:43:44.901Z,5.22
2023-04-17T06:46:14.901Z,5.25
2023-04-17T06:48:41.435Z,5.55
2023-04-17T06:51:08.119Z,6.47
2023-04-17T06:53:35.042Z,6.78
2023-04-17T06:56:01.566Z,7.00
2023-04-17T06:58:28.984Z,7.13
2023-04-17T07:00:55.909Z,6.57
2023-04-17T07:03:22.517Z,7.40
2023-04-17T07:05:51.128Z,6.97
2023-04-17T07:08:19.389Z,8.30
2023-04-17T07:10:45.980Z,9.15
2023-04-17T07:13:12.503Z,9.15
2023-04-17T07:15:41.175Z,9.20
2023-04-17T07:18:07.689Z,9.50
2023-04-17T07:20:34.651Z,8.80
2023-04-17T07:23:01.536Z,8.20
2023-04-17T07:25:28.065Z,8.20
2023-04-17T07:27:57.112Z,8.25
2023-04-17T07:30:23.796Z,9.20
2023-04-17T07:32:51.400Z,10.55
2023-04-17T07:35:18.184Z,8.57
2023-04-17T07:37:45.293Z,13.13
2023-04-17T07:40:12.132Z,11.05
2023-04-17T07:42:39.121Z,10.43
2023-04-17T07:45:06.118Z,9.93
2023-04-17T07:47:32.652Z,9.95
2023-04-17T07:49:59.519Z,8.73
2023-04-17T07:52:36.611Z,8.23
2023-04-17T07:55:05.541Z,8.13
2023-04-17T07:57:34.381Z,7.50
2023-04-17T08:00:01.932Z,7.07
2023-04-17T08:02:40.437Z,7.93
2023-04-17T08:05:08.212Z,6.93
2023-04-17T08:07:37.000Z,6.80
2023-04-17T08:10:04.333Z,7.05
2023-04-17T08:12:30.833Z,6.32
2023-04-17T08:14:57.353Z,5.85
2023-04-17T08:17:27.418Z,4.80
2023-04-17T08:20:00.661Z,5.60
2023-04-17T08:22:29.091Z,5.38
2023-04-17T08:24:58.987Z,5.32
2023-04-17T08:27:25.997Z,5.72
2023-04-17T08:29:56.535Z,5.15
2023-04-17T08:32:23.107Z,5.68
2023-04-17T08:34:49.729Z,5.93
2023-04-17T08:37:17.571Z,5.53
2023-04-17T08:39:44.738Z,5.20
2023-04-17T08:42:16.531Z,5.50
2023-04-17T08:44:45.832Z,5.22
2023-04-17T08:47:13.014Z,4.70
2023-04-17T08:49:44.004Z,4.50
2023-04-17T08:52:11.347Z,4.40
2023-04-17T08:54:39.163Z,4.22
2023-04-17T08:57:06.193Z,5.60
2023-04-17T08:59:32.945Z,5.65
2023-04-17T09:02:05.350Z,5.88
2023-04-17T09:04:37.944Z,5.82
2023-04-17T09:07:05.909Z,5.43
2023-04-17T09:09:54.285Z,5.78
2023-04-17T09:12:24.793Z,6.43
2023-04-17T09:14:51.644Z,6.90
2023-04-17T09:17:19.277Z,6.88
2023-04-17T09:20:01.189Z,7.05
2023-04-17T09:22:27.972Z,7.53
2023-04-17T09:24:56.741Z,7.43
2023-04-17T09:27:28.624Z,7.68
2023-04-17T09:30:05.981Z,9.00
2023-04-17T09:32:34.230Z,10.27
2023-04-17T09:35:01.833Z,9.55
2023-04-17T09:37:44.725Z,10.18
2023-04-17T09:40:14.173Z,9.80
2023-04-17T09:42:59.536Z,10.18
2023-04-17T09:45:27.330Z,10.32
2023-04-17T09:47:56.394Z,10.40
2023-04-17T09:50:24.858Z,10.23
2023-04-17T09:52:52.767Z,9.82
2023-04-17T09:55:21.565Z,9.75
2023-04-17T09:57:53.287Z,8.90
2023-04-17T10:00:20.906Z,8.98
2023-04-17T10:02:52.248Z,9.57
2023-04-17T10:05:19.938Z,8.90
2023-04-17T10:07:46.819Z,8.63
2023-04-17T10:10:22.803Z,7.95
2023-04-17T10:12:50.441Z,8.00
2023-04-17T10:15:17.355Z,8.05
2023-04-17T10:17:47.239Z,8.65
2023-04-17T10:20:17.622Z,8.50
2023-04-17T10:22:45.084Z,7.55
2023-04-17T10:25:17.056Z,7.28
2023-04-17T10:27:46.194Z,6.88
2023-04-17T10:30:13.205Z,6.60
2023-04-17T10:32:42.342Z,6.70
2023-04-17T10:35:17.994Z,6.63
2023-04-17T10:37:51.052Z,6.30
2023-04-17T10:40:21.599Z,6.38
2023-04-17T10:43:23.887Z,6.55
2023-04-17T10:45:59.695Z,6.30
2023-04-17T10:48:44.589Z,6.15
2023-04-17T10:51:20.626Z,5.93
2023-04-17T10:53:48.022Z,6.35
2023-04-17T10:56:18.781Z,6.63
2023-04-17T10:59:15.083Z,7.03
2023-04-17T11:01:50.141Z,7.22
2023-04-17T11:04:21.882Z,7.07
2023-04-17T11:06:48.792Z,7.90
2023-04-17T11:09:16.607Z,7.65
2023-04-17T11:11:45.059Z,8.13
2023-04-17T11:14:14.441Z,7.80
2023-04-17T11:16:42.104Z,7.43
2023-04-17T11:19:22.669Z,6.90
2023-04-17T11:21:52.091Z,6.20
2023-04-17T11:24:28.863Z,6.38
2023-04-17T11:26:56.613Z,7.13
2023-04-17T11:29:23.615Z,7.53
2023-04-17T11:31:59.987Z,7.03
2023-04-17T11:34:27.171Z,6.85
2023-04-17T11:36:56.108Z,7.20
2023-04-17T11:39:27.931Z,7.10
2023-04-17T11:42:00.068Z,6.35
2023-04-17T11:44:28.564Z,6.57
2023-04-17T11:46:56.177Z,7.15
2023-04-17T11:49:26.514Z,7.18
2023-04-17T11:51:59.309Z,6.80
2023-04-17T11:54:29.819Z,6.63
2023-04-17T11:57:00.264Z,7.05
2023-04-17T11:59:37.357Z,6.38
2023-04-17T12:02:07.492Z,6.50
2023-04-17T12:04:35.244Z,6.65
2023-04-17T12:07:07.266Z,7.38
2023-04-17T12:09:34.256Z,7.10
2023-04-17T12:12:02.716Z,7.50
2023-04-17T12:14:29.594Z,6.50
2023-04-17T12:16:56.123Z,6.75
2023-04-17T12:19:22.577Z,6.45
2023-04-17T12:21:49.448Z,6.55
2023-04-17T12:24:19.123Z,6.60
2023-04-17T12:26:46.825Z,7.68
2023-04-17T12:29:17.826Z,7.05
2023-04-17T12:31:46.136Z,6.20
2023-04-17T12:34:12.841Z,6.20
2023-04-17T12:36:41.520Z,6.35
2023-04-17T12:39:07.993Z,6.20
2023-04-17T12:41:36.554Z,7.00
2023-04-17T12:44:05.781Z,6.10
2023-04-17T12:46:32.339Z,8.20
2023-04-17T12:49:00.210Z,9.43
2023-04-17T12:51:27.930Z,6.40
2023-04-17T12:53:58.109Z,6.40
2023-04-17T12:56:26.357Z,7.30
2023-04-17T12:58:52.948Z,6.65
2023-04-17T13:01:19.498Z,6.65
2023-04-17T13:03:46.868Z,6.75
2023-04-17T13:06:13.694Z,6.70
2023-04-17T13:08:41.040Z,6.53
2023-04-17T13:11:10.967Z,6.55
2023-04-17T13:13:37.381Z,6.35
2023-04-17T13:16:04.118Z,6.60
2023-04-17T13:18:31.172Z,6.10
2023-04-17T13:20:58.007Z,7.05
2023-04-17T13:23:24.397Z,6.63
2023-04-17T13:25:51.603Z,6.22
2023-04-17T13:28:18.542Z,7.13
2023-04-17T13:30:46.932Z,7.60
2023-04-17T13:33:14.289Z,7.68
2023-04-17T13:35:42.560Z,6.82
2023-04-17T13:38:09.015Z,7.45
2023-04-17T13:40:38.531Z,7.90
2023-04-17T13:43:06.214Z,8.13
2023-04-17T13:45:36.198Z,8.68
2023-04-17T13:48:02.803Z,8.00
2023-04-17T13:50:29.970Z,8.43
2023-04-17T13:52:56.432Z,8.80
2023-04-17T13:55:23.697Z,8.60
2023-04-17T13:57:51.159Z,8.52
2023-04-17T14:00:18.819Z,8.15
2023-04-17T14:02:45.529Z,8.65
2023-04-17T14:05:13.371Z,8.70
2023-04-17T14:07:39.986Z,8.45
2023-04-17T14:10:10.134Z,8.52
2023-04-17T14:12:37.179Z,8.88
2023-04-17T14:15:04.488Z,8.90
2023-04-17T14:17:32.521Z,9.00
2023-04-17T14:20:00.301Z,8.80
2023-04-17T14:22:29.682Z,9.88
2023-04-17T14:24:56.403Z,9.65
2023-04-17T14:27:22.906Z,10.75
2023-04-17T14:29:49.619Z,9.98
2023-04-17T14:32:16.060Z,9.57
2023-04-17T14:34:44.683Z,9.23
2023-04-17T14:37:11.129Z,9.00
2023-04-17T14:39:39.193Z,9.02
2023-04-17T14:42:05.776Z,8.88
2023-04-17T14:44:32.323Z,9.88
2023-04-17T14:46:59.804Z,9.18
2023-04-17T14:49:27.093Z,8.88
2023-04-17T14:51:54.093Z,9.38
2023-04-17T14:54:22.693Z,10.35
2023-04-17T14:56:50.309Z,9.20
2023-04-17T14:59:17.389Z,9.48
2023-04-17T15:01:43.840Z,9.77
2023-04-17T15:04:11.503Z,10.95
2023-04-17T15:06:39.209Z,10.40
2023-04-17T15:09:07.343Z,10.75
2023-04-17T15:11:33.892Z,10.90
2023-04-17T15:14:00.826Z,10.57
2023-04-17T15:16:27.388Z,11.20
2023-04-17T15:18:56.226Z,10.57
2023-04-17T15:21:22.740Z,11.43
2023-04-17T15:23:49.539Z,10.98
2023-04-17T15:26:16.086Z,11.20
2023-04-17T15:28:42.888Z,11.10
2023-04-17T15:31:11.260Z,11.77
2023-04-17T15:33:39.533Z,11.68
2023-04-17T15:36:06.026Z,10.85
2023-04-17T15:38:32.729Z,10.55
2023-04-17T15:40:59.425Z,11.57
2023-04-17T15:43:26.240Z,9.90
2023-04-17T15:45:52.995Z,10.00
2023-04-17T15:48:19.426Z,10.77
2023-04-17T15:50:46.254Z,10.73
2023-04-17T15:53:15.575Z,9.25
2023-04-17T15:55:42.077Z,10.20
2023-04-17T15:58:09.948Z,9.38
2023-04-17T16:00:38.144Z,9.95
2023-04-17T16:03:07.946Z,10.40
2023-04-17T16:05:35.138Z,9.82
2023-04-17T16:08:01.698Z,10.27
2023-04-17T16:10:28.203Z,10.65
2023-04-17T16:12:54.757Z,10.68
2023-04-17T16:15:21.575Z,11.10
2023-04-17T16:17:50.824Z,10.57
2023-04-17T16:20:17.723Z,10.85
2023-04-17T16:22:44.522Z,10.38
2023-04-17T16:25:13.679Z,10.82
2023-04-17T16:27:40.656Z,11.05
2023-04-17T16:30:08.177Z,12.02
2023-04-17T16:32:34.826Z,11.57
2023-04-17T16:35:01.370Z,10.85
2023-04-17T16:37:28.126Z,11.35
2023-04-17T16:39:55.007Z,11.07
2023-04-17T16:42:21.564Z,11.13
2023-04-17T16:44:48.416Z,10.90
2023-04-17T16:47:15.184Z,11.32
2023-04-17T16:49:44.436Z,12.93
2023-04-17T16:52:11.283Z,12.55
2023-04-17T16:54:38.188Z,11.80
2023-04-17T16:57:05.896Z,11.93
2023-04-17T16:59:34.194Z,12.15
2023-04-17T17:02:03.982Z,11.40
2023-04-17T17:04:31.610Z,12.10
2023-04-17T17:06:58.215Z,12.27
2023-04-17T17:09:25.461Z,12.80
2023-04-17T17:11:51.888Z,12.38
2023-04-17T17:14:18.937Z,13.40
2023-04-17T17:16:46.174Z,13.38
2023-04-17T17:19:12.998Z,13.27
2023-04-17T17:21:41.135Z,13.02
2023-04-17T17:24:07.596Z,13.75
2023-04-17T17:26:34.605Z,13.18
2023-04-17T17:29:02.462Z,13.27
2023-04-17T17:31:30.816Z,13.93
2023-04-17T17:34:11.949Z,13.50
2023-04-17T17:36:49.198Z,14.45
2023-04-17T17:39:15.686Z,13.10
2023-04-17T17:41:43.910Z,13.10
2023-04-17T17:44:12.588Z,12.43
2023-04-17T17:46:39.541Z,12.02
2023-04-17T17:49:05.994Z,11.07
2023-04-17T17:51:33.160Z,11.10
2023-04-17T17:53:59.617Z,11.30
2023-04-17T17:56:26.553Z,11.18
2023-04-17T17:58:53.239Z,9.75
2023-04-17T18:01:19.837Z,10.90
2023-04-17T18:03:49.406Z,10.48
2023-04-17T18:06:17.987Z,9.38
2023-04-17T18:08:44.462Z,10.10
2023-04-17T18:11:13.828Z,9.77
2023-04-17T18:13:40.449Z,9.48
2023-04-17T18:16:07.576Z,9.25
2023-04-17T18:18:34.396Z,9.70
2023-04-17T18:21:05.821Z,9.23
2023-04-17T18:23:33.610Z,9.25
2023-04-17T18:26:01.317Z,9.13
2023-04-17T18:28:28.430Z,9.32
2023-04-17T18:30:55.040Z,9.30
2023-04-17T18:33:22.222Z,9.40
2023-04-17T18:35:49.270Z,9.23
2023-04-17T18:38:16.819Z,8.93
2023-04-17T18:40:43.840Z,9.30
2023-04-17T18:43:11.618Z,8.38
2023-04-17T18:45:38.123Z,7.80
2023-04-17T18:48:08.378Z,7.65
2023-04-17T18:50:34.888Z,7.07
2023-04-17T18:53:04.557Z,7.65
2023-04-17T18:55:32.253Z,6.55
2023-04-17T18:58:01.894Z,6.53
2023-04-17T19:00:28.363Z,6.47
2023-04-17T19:02:56.481Z,6.55
2023-04-17T19:05:23.157Z,6.38
2023-04-17T19:07:51.179Z,6.32
2023-04-17T19:10:18.204Z,6.63
2023-04-17T19:12:44.677Z,6.43
2023-04-17T19:15:11.725Z,6.20
2023-04-17T19:17:38.873Z,6.45
2023-04-17T19:20:06.243Z,6.47
2023-04-17T19:22:32.652Z,7.13
2023-04-17T19:25:00.899Z,6.97
2023-04-17T19:27:27.446Z,6.53
2023-04-17T19:29:53.997Z,6.55
2023-04-17T19:32:20.498Z,6.43
2023-04-17T19:34:47.808Z,6.70
2023-04-17T19:37:14.890Z,7.00
2023-04-17T19:39:41.715Z,7.00
2023-04-17T19:42:08.281Z,6.70
2023-04-17T19:44:36.043Z,6.78
2023-04-17T19:47:02.847Z,7.07
2023-04-17T19:49:31.354Z,6.72
2023-04-17T19:51:59.336Z,6.88
2023-04-17T19:54:26.708Z,6.75
2023-04-17T19:56:53.245Z,6.32
2023-04-17T19:59:20.473Z,7.03
2023-04-17T20:01:47.029Z,6.95
2023-04-17T20:04:13.764Z,6.25
2023-04-17T20:06:41.047Z,6.68
2023-04-17T20:09:07.996Z,6.20
2023-04-17T20:11:34.578Z,6.63
2023-04-17T20:14:01.156Z,6.72
2023-04-17T20:16:27.653Z,5.88
2023-04-17T20:18:56.470Z,5.97
2023-04-17T20:21:23.706Z,5.95
2023-04-17T20:23:50.717Z,6.25
2023-04-17T20:26:17.392Z,5.93
2023-04-17T20:28:44.363Z,5.60
2023-04-17T20:31:11.268Z,5.78
2023-04-17T20:33:38.096Z,6.07
2023-04-17T20:36:05.388Z,6.05
2023-04-17T20:38:31.937Z,6.22
2023-04-17T20:40:58.485Z,5.80
2023-04-17T20:43:25.056Z,6.20
2023-04-17T20:45:53.433Z,6.05
2023-04-17T20:48:20.111Z,5.57
2023-04-17T20:50:46.961Z,5.72
2023-04-17T20:53:13.456Z,6.07
2023-04-17T20:55:40.034Z,5.90
2023-04-17T20:58:06.539Z,5.97
2023-04-17T21:00:34.762Z,5.60
2023-04-17T21:03:01.317Z,5.63
2023-04-17T21:05:27.996Z,5.72
2023-04-17T21:07:54.566Z,5.88
2023-04-17T21:10:21.477Z,5.80
2023-04-17T21:12:48.163Z,6.00
2023-04-17T21:15:15.546Z,6.65
2023-04-17T21:17:46.662Z,6.50
2023-04-17T21:20:13.594Z,6.93
2023-04-17T21:22:40.291Z,6.57
2023-04-17T21:25:07.207Z,7.10
2023-04-17T21:27:34.145Z,7.13
2023-04-17T21:30:00.706Z,6.82
2023-04-17T21:32:27.457Z,7.10
2023-04-17T21:34:54.054Z,7.28
2023-04-17T21:37:20.834Z,7.30
2023-04-17T21:39:48.312Z,7.43
2023-04-17T21:42:14.945Z,7.60
2023-04-17T21:44:41.633Z,7.43
2023-04-17T21:47:08.206Z,7.10
2023-04-17T21:49:34.760Z,7.43
2023-04-17T21:52:01.323Z,8.27
2023-04-17T21:54:27.814Z,8.63
2023-04-17T21:56:54.349Z,8.82
2023-04-17T21:59:21.218Z,8.13
2023-04-17T22:01:47.786Z,9.43
2023-04-17T22:04:14.643Z,8.52
2023-04-17T22:06:41.736Z,9.27
2023-04-17T22:09:09.037Z,9.00
2023-04-17T22:11:37.672Z,9.52
2023-04-17T22:14:04.147Z,10.10
2023-04-17T22:16:30.942Z,9.60
2023-04-17T22:18:57.546Z,10.45
2023-04-17T22:21:24.137Z,11.63
2023-04-17T22:23:50.829Z,10.82
2023-04-17T22:26:17.319Z,11.70
2023-04-17T22:28:44.006Z,11.88
2023-04-17T22:31:10.979Z,11.60
2023-04-17T22:33:37.895Z,11.73
2023-04-17T22:36:04.454Z,11.75
2023-04-17T22:38:31.232Z,13.30
2023-04-17T22:40:57.676Z,12.80
2023-04-17T22:43:24.420Z,13.65
2023-04-17T22:45:50.971Z,12.85
2023-04-17T22:48:18.301Z,13.48
2023-04-17T22:50:45.572Z,13.52
2023-04-17T22:53:12.197Z,12.93
2023-04-17T22:55:38.938Z,14.00
2023-04-17T22:58:05.772Z,13.25
2023-04-17T23:00:32.568Z,14.20
2023-04-17T23:02:59.206Z,14.13
2023-04-17T23:05:25.874Z,14.63
2023-04-17T23:07:52.654Z,14.45
2023-04-17T23:10:19.951Z,13.98
2023-04-17T23:12:46.578Z,15.57
2023-04-17T23:15:13.333Z,14.30
2023-04-17T23:17:40.020Z,14.02
2023-04-17T23:20:06.827Z,15.00
2023-04-17T23:22:33.451Z,15.15
2023-04-17T23:25:00.147Z,15.27
2023-04-17T23:27:26.754Z,16.58
2023-04-17T23:29:54.398Z,15.82
2023-04-17T23:32:21.249Z,16.20
2023-04-17T23:34:47.726Z,17.02
2023-04-17T23:37:14.301Z,17.15
2023-04-17T23:39:41.071Z,18.65
2023-04-17T23:42:08.049Z,17.38
2023-04-17T23:44:34.786Z,17.00
2023-04-17T23:47:02.117Z,16.33
2023-04-17T23:49:28.782Z,16.00
2023-04-17T23:51:55.559Z,16.75
2023-04-17T23:54:22.088Z,15.73
2023-04-17T23:56:48.762Z,16.40
2023-04-17T23:59:15.261Z,15.55
